Hangaard, Minnesota
Current Conditions -  °F | °C
As of 9:35 PM on Monday 20 Oct 2014 (Local Time) from KFSE Reporting Station
Clear Clear  
Wind Chill:   Ceiling: Unl
Heat Index:   Visibility: 10mi
Dew Point: -2°   Wind: 3mph
Humidity: 70%   Direction: 100°E
Pressure: 30.07"   Gusts: NA
Location:  47.8469°N, 95.4815°W
Report Text: KFSE 210235Z AUTO 10003KT 10SM CLR 03/M02 A3007 RMK AO2
Loading
Personal Weather Stations






























Interactive Weather Map
Tropical Storm Tracking
New forecast layout! Learn more

10-Day Weather Forecast

Advertisements
Track Severe Weather on mobile